Advance, North Carolina
Current Conditions -  °F | °C
As of 5:55 PM on Thursday 27 Nov 2014 (Local Time) from KEXX Reporting Station
Broken Clouds Broken Clouds  
Wind Chill:   Ceiling: 7000
Heat Index:   Visibility: 10mi
Dew Point: -3°   Wind: 5mph
Humidity: 57%   Direction: 340°NNW
Pressure: 30.19"   Gusts: NA
Location:  35.95°N, 80.41°W
Report Text: KEXX 272255Z AUTO 34004KT 10SM BKN070 04/M03 A3019 RMK AO2 T00441034
Loading
Personal Weather Stations






























Interactive Weather Map New forecast layout! Learn more

10-Day Weather Forecast

Advertisements
Track Severe Weather on mobile